sensor_id;sensor_type;location;lat;lon;timestamp;P1;durP1;ratioP1;P2;durP2;ratioP2
73104;SDS011;61296;50.526;30.792;2023-02-08T00:02:50;26.35;;;8.98;;
73104;SDS011;61296;50.526;30.792;2023-02-08T00:18:11;31.85;;;9.68;;
73104;SDS011;61296;50.526;30.792;2023-02-08T00:33:31;26.48;;;9.57;;
73104;SDS011;61296;50.526;30.792;2023-02-08T00:48:50;33.88;;;10.32;;
73104;SDS011;61296;50.526;30.792;2023-02-08T01:04:10;37.90;;;11.10;;
73104;SDS011;61296;50.526;30.792;2023-02-08T01:19:29;32.15;;;10.98;;
73104;SDS011;61296;50.526;30.792;2023-02-08T01:34:49;27.50;;;10.18;;
73104;SDS011;61296;50.526;30.792;2023-02-08T01:50:08;35.53;;;11.63;;
73104;SDS011;61296;50.526;30.792;2023-02-08T02:05:31;31.88;;;11.15;;
73104;SDS011;61296;50.526;30.792;2023-02-08T03:39:57;37.30;;;11.77;;
73104;SDS011;61296;50.526;30.792;2023-02-08T03:55:22;43.83;;;13.50;;
73104;SDS011;61296;50.526;30.792;2023-02-08T04:10:43;38.60;;;11.98;;
73104;SDS011;61296;50.526;30.792;2023-02-08T04:26:04;39.35;;;14.18;;
73104;SDS011;61296;50.526;30.792;2023-02-08T04:41:25;28.35;;;9.15;;
73104;SDS011;61296;50.526;30.792;2023-02-08T04:56:44;37.38;;;10.40;;
73104;SDS011;61296;50.526;30.792;2023-02-08T05:12:03;34.42;;;10.82;;
73104;SDS011;61296;50.526;30.792;2023-02-08T05:27:23;35.60;;;12.93;;
73104;SDS011;61296;50.526;30.792;2023-02-08T05:42:43;18.63;;;8.23;;
73104;SDS011;61296;50.526;30.792;2023-02-08T05:58:02;23.30;;;8.57;;
73104;SDS011;61296;50.526;30.792;2023-02-08T08:25:54;34.08;;;11.90;;
73104;SDS011;61296;50.526;30.792;2023-02-08T08:41:14;29.45;;;10.02;;
73104;SDS011;61296;50.526;30.792;2023-02-08T08:56:35;21.70;;;8.80;;
73104;SDS011;61296;50.526;30.792;2023-02-08T09:11:55;24.58;;;9.77;;
73104;SDS011;61296;50.526;30.792;2023-02-08T09:27:14;27.98;;;10.02;;
73104;SDS011;61296;50.526;30.792;2023-02-08T09:42:43;22.65;;;8.80;;
73104;SDS011;61296;50.526;30.792;2023-02-08T10:29:40;25.63;;;7.38;;
73104;SDS011;61296;50.526;30.792;2023-02-08T11:00:53;17.33;;;6.47;;
73104;SDS011;61296;50.526;30.792;2023-02-08T11:16:46;23.67;;;9.38;;
73104;SDS011;61296;50.526;30.792;2023-02-08T11:32:00;20.83;;;8.37;;
73104;SDS011;61296;50.526;30.792;2023-02-08T11:47:27;22.75;;;7.30;;
73104;SDS011;61296;50.526;30.792;2023-02-08T12:02:50;18.58;;;7.57;;
73104;SDS011;61296;50.526;30.792;2023-02-08T12:34:00;20.02;;;7.90;;
73104;SDS011;61296;50.526;30.792;2023-02-08T13:05:29;21.88;;;8.98;;
73104;SDS011;61296;50.526;30.792;2023-02-08T13:20:57;20.33;;;8.90;;
73104;SDS011;61296;50.526;30.792;2023-02-08T13:36:24;23.00;;;9.93;;
73104;SDS011;61296;50.526;30.792;2023-02-08T13:51:51;22.30;;;9.60;;
73104;SDS011;61296;50.526;30.792;2023-02-08T14:07:16;28.20;;;10.65;;
73104;SDS011;61296;50.526;30.792;2023-02-08T14:23:02;28.30;;;10.00;;
73104;SDS011;61296;50.526;30.792;2023-02-08T14:53:55;27.17;;;10.60;;
73104;SDS011;61296;50.526;30.792;2023-02-08T15:09:26;39.30;;;16.50;;
73104;SDS011;61296;50.526;30.792;2023-02-08T15:24:51;24.42;;;9.15;;
73104;SDS011;61296;50.526;30.792;2023-02-08T15:40:28;20.95;;;9.13;;
73104;SDS011;61296;50.526;30.792;2023-02-08T15:55:51;25.52;;;10.55;;
73104;SDS011;61296;50.526;30.792;2023-02-08T16:11:19;27.20;;;10.50;;
73104;SDS011;61296;50.526;30.792;2023-02-08T16:27:01;22.55;;;10.00;;
73104;SDS011;61296;50.526;30.792;2023-02-08T16:57:44;39.40;;;13.98;;
73104;SDS011;61296;50.526;30.792;2023-02-08T17:13:05;41.35;;;14.48;;
73104;SDS011;61296;50.526;30.792;2023-02-08T17:28:25;29.52;;;11.48;;
73104;SDS011;61296;50.526;30.792;2023-02-08T17:43:45;32.03;;;12.95;;
73104;SDS011;61296;50.526;30.792;2023-02-08T17:59:09;25.42;;;10.10;;
73104;SDS011;61296;50.526;30.792;2023-02-08T18:14:28;31.23;;;11.80;;
73104;SDS011;61296;50.526;30.792;2023-02-08T18:29:47;24.42;;;9.00;;
73104;SDS011;61296;50.526;30.792;2023-02-08T18:45:06;28.15;;;11.02;;
73104;SDS011;61296;50.526;30.792;2023-02-08T19:00:26;30.30;;;11.13;;
73104;SDS011;61296;50.526;30.792;2023-02-08T19:15:45;23.33;;;9.82;;
73104;SDS011;61296;50.526;30.792;2023-02-08T19:31:05;26.67;;;9.93;;
73104;SDS011;61296;50.526;30.792;2023-02-08T19:46:27;25.83;;;9.48;;
73104;SDS011;61296;50.526;30.792;2023-02-08T20:01:47;21.63;;;7.82;;
73104;SDS011;61296;50.526;30.792;2023-02-08T20:17:06;29.15;;;11.02;;
73104;SDS011;61296;50.526;30.792;2023-02-08T20:32:26;39.03;;;15.50;;
73104;SDS011;61296;50.526;30.792;2023-02-08T20:47:45;25.67;;;10.15;;
73104;SDS011;61296;50.526;30.792;2023-02-08T21:03:05;38.42;;;14.15;;
73104;SDS011;61296;50.526;30.792;2023-02-08T21:18:24;50.63;;;17.55;;
73104;SDS011;61296;50.526;30.792;2023-02-08T21:33:43;47.47;;;15.77;;
73104;SDS011;61296;50.526;30.792;2023-02-08T21:49:03;49.15;;;18.00;;
73104;SDS011;61296;50.526;30.792;2023-02-08T22:04:41;51.40;;;19.17;;
73104;SDS011;61296;50.526;30.792;2023-02-08T22:20:19;54.78;;;18.70;;
73104;SDS011;61296;50.526;30.792;2023-02-08T22:35:39;45.03;;;16.02;;
73104;SDS011;61296;50.526;30.792;2023-02-08T22:51:04;28.75;;;12.32;;
73104;SDS011;61296;50.526;30.792;2023-02-08T23:21:43;20.42;;;8.55;;
73104;SDS011;61296;50.526;30.792;2023-02-08T23:37:03;30.17;;;12.00;;
73104;SDS011;61296;50.526;30.792;2023-02-08T23:52:22;39.03;;;14.45;;
